LiveATC.Net - Listen to live air traffic control over the Internet!
Airport/ARTCC Code
Frequency Search
(e.g., 124.400, 128.75)
Site-wide search
 


Browse Feeds
Top 50 Feeds
HF Oceanic Feeds
Coverage Map
Bad Weather Areas

LiveATC FAQ

Increase Coverage

Contact LiveATC.net
Press Inquiries

LiveATC on iPhone
LiveATC on Android

LiveATC Mobile
(Mobile browser)

ATC Audio Archives
Interesting Recordings

LiveATC Forums

Home Page
About LiveATC.net


Terms of Use
Privacy Policy

AIRMETs/SIGMETs

FAA Airport Status
NAS Status
Arrival Demand


Server Software By:
Icecast.org
Liquidsoap

Select an area of interest:
U.S. Feeds: Class B Airports | Class C Airports | Class D/Other Airports | ARTCC (Centers)
International Feeds: Canada | Europe | Oceania | Asia | South America | North/Central America | Africa
Misc Feeds: HF Feeds
Search by ICAO/IATA airport code:   (e.g., kbos, kjfk, lax, eham, etc.)


Currently Available Live Feeds: 3219
Status Updated: Fri Apr 12 2024 16:50:38 UTC


NOTICE

Unauthorized use prohibited. See LiveATC.net Terms of Service

South America Airport Feeds

 

SADL Misc (Archives)
La Plata, Argentina

Feed Status: UP
Listen in your browser - HTML5 player(in browser, HTML5)
Click here to listen with your own player(launches your MP3 player)

METAR NOT AVAILABLE

SADL Flight Activity (Flightaware)

Listeners: 3 out of 3008 total

Air to Air: 123.450
Chascomus: 123.200
Emergency/Guard: 121.500
General: 123.500
La Plata: 119.300
Lobos: 123.300
Planeadores: 123.000
Punta Indio: 130.800
Quilmes: 122.200

SANT Tower/Apps (Archives)
Tucuman, Argentina

Feed Status: UP
Listen in your browser - HTML5 player(in browser, HTML5)
Click here to listen with your own player(launches your MP3 player)

SANT 131600Z 07008KT 040V100 9999 FEW045 33/26 Q1005

SANT Flight Activity (Flightaware)

Listeners: 0 out of 3008 total

Aeroclub Tucuman: 119.000
Aerolineas Argentinas SOC Salta: 131.100
Aerolineas Argentinas SOC Tucuman: 131.950
Air To Air: 123.450
Andes Lineas Aereas: 132.000
Campo Arenal: 130.950
Catamarca Tower: 118.150
Copa Airlines: 129.400
Cordoba Centro Norte: 125.100
Cordoba Centro Sur: 126.500
Emergency/Guard: 121.500
Lan Argentina Operaciones: 131.700
Lan Peru: 131.300
Salta Tower: 128.850
Santiago del Estero Tower: 118.700
Taca Peru: 126.450
Termas de Rio Hondo: 118.200
Termas de Rio Hondo: 119.850
Tucuman Ground: 121.750
Tucuman Ground: 121.750
Tucuman Tower: 118.350
Tucuman Tower: 119.500

SASA Twr/App (Archives)
Salta, Argentina

Feed Status: UP
Listen in your browser - HTML5 player(in browser, HTML5)
Click here to listen with your own player(launches your MP3 player)

SASA 121600Z VRB01KT 9999 VCSH FEW016 OVC030 18/14 Q1017 PP000

SASA Flight Activity (Flightaware)

Listeners: 0 out of 3008 total

Cordoba Approach (North): 128.250
Salta Approach: 124.600
Salta Tower: 126.000
Salta Tower/Ground: 128.850

SAZN Tower (Archives)
Neuquen, Argentina

Feed Status: UP
Listen in your browser - HTML5 player(in browser, HTML5)
Click here to listen with your own player(launches your MP3 player)

SAZN 121600Z 09008KT 9999 BKN030 OVC100 12/08 Q1024

SAZN Flight Activity (Flightaware)

Listeners: 1 out of 3008 total

Neuquen Tower/Approach: 119.800

SAZS Gnd/Twr/App (Archives)
Rio Negro, Argentina

Feed Status: UP
Listen in your browser - HTML5 player(in browser, HTML5)
Click here to listen with your own player(launches your MP3 player)

SAZS 121600Z 11007KT 8000 VCSH FEW019 SCT034 BKN042 10/05 Q1022

SAZS Flight Activity (Flightaware)

Listeners: 0 out of 3008 total

Bariloche Twr/App: 119.100
Comodoro Rivadavia Control: 125.500
Ezeiza South: 125.200

SBAR Twr/App (Archives)
Aracaju, Brazil

Feed Status: UP
Listen in your browser - HTML5 player(in browser, HTML5)
Click here to listen with your own player(launches your MP3 player)

SBAR 121600Z 12011KT 100V170 9999 SCT023 31/25 Q1011

SBAR Flight Activity (Flightaware)

Listeners: 0 out of 3008 total

Santa Maria Approach: 120.300
Santa Maria Tower: 118.800

SBBE Twr/App/SBAZ (Archives)
Belem, Brazil

Feed Status: UP
Listen in your browser - HTML5 player(in browser, HTML5)
Click here to listen with your own player(launches your MP3 player)

SBBE 121600Z 30006KT 9999 3000SW -RA SCT010 BKN020 FEW025TCU 26/25 Q1011 RERA

SBBE Flight Activity (Flightaware)

Listeners: 1 out of 3008 total

Amazonica FIR (SBAZ): 126.500
Amazonica FIR (SBAZ): 128.000
Amazonica FIR (SBAZ): 123.950
Amazonica FIR (SBAZ): 126.150
Amazonica FIR (SBAZ): 126.650
Amazonica FIR (SBAZ): 133.700
Belem Approach: 119.050
Belem Approach: 119.500
Belem Tower: 118.700

SBBR Approach (Archives)
Brasilia, Brazil

Feed Status: UP
Listen in your browser - HTML5 player(in browser, HTML5)
Click here to listen with your own player(launches your MP3 player)

SBBR 121600Z 04008KT 010V070 9999 VCTS SCT030 FEW035CB BKN070 24/20 Q1019

SBBR Flight Activity (Flightaware)

Listeners: 2 out of 3008 total

Brasilia Approach: 120.650
Brasilia Approach: 129.150
Brasilia Approach: 129.600
Brasilia Approach (Final): 119.200
Brasilia Departure: 119.500
Brasilia Departure: 119.700

SBBR Ground
Brasilia, Brazil

Feed Status: DOWN
Offline since: 2024-04-11 23:59:40 UTC

SBBR 121600Z 04008KT 010V070 9999 VCTS SCT030 FEW035CB BKN070 24/20 Q1019

Brasilia Ground: 121.950
Brasilia Ground: 121.800

SBBR Tower
Brasilia, Brazil

Feed Status: DOWN
Offline since: 2024-04-11 23:59:40 UTC

SBBR 121600Z 04008KT 010V070 9999 VCTS SCT030 FEW035CB BKN070 24/20 Q1019

Brasilia Tower: 118.100
Brasilia Tower: 181.750
Brasilia Tower: 118.450

SBCT Gnd/Twr/App (Archives)
Curitiba, Brazil

Feed Status: UP
Listen in your browser - HTML5 player(in browser, HTML5)
Click here to listen with your own player(launches your MP3 player)

SBCT 121625Z 11007KT 9999 SCT015 BKN030 23/19 Q1022

SBCT Flight Activity (Flightaware)

Listeners: 1 out of 3008 total

Curitiba Approach: 119.950
Curitiba Ground: 121.900
Curitiba Tower: 118.150
Curitiba Tower: 118.900

SBEG Tower/App (Archives)
Manaus, Brazil

Feed Status: UP
Listen in your browser - HTML5 player(in browser, HTML5)
Click here to listen with your own player(launches your MP3 player)

SBEG 121600Z 23006KT 190V260 9999 SCT006 SCT100 28/25 Q1012

SBEG Flight Activity (Flightaware)

Listeners: 3 out of 3008 total

Emergency/Guard: 121.500
Manaus Approach : 119.250
Manaus Approach: 120.400
Manaus Approach: 119.700
Manaus Tower: 118.300

SBFZ Gnd/Twr/App (Archives)
Fortaleza, Brazil

Feed Status: UP
Listen in your browser - HTML5 player(in browser, HTML5)
Click here to listen with your own player(launches your MP3 player)

SBFZ 121600Z 10011KT 9999 VCSH FEW025 FEW030TCU BKN100 30/25 Q1011

SBFZ Flight Activity (Flightaware)

Listeners: 6 out of 3008 total

Ait to Air: 123.450
Ait to Air: 123.400
Fortaleza Approach: 133.000
Fortaleza Approach (backup): 134.550
Fortaleza Ground: 121.950
Fortaleza Tower: 129.000

SBFZ Twr/App/Center (Archives)
Fortaleza, Brazil

Feed Status: UP
Listen in your browser - HTML5 player(in browser, HTML5)
Click here to listen with your own player(launches your MP3 player)

SBFZ 121600Z 10011KT 9999 VCSH FEW025 FEW030TCU BKN100 30/25 Q1011

SBFZ Flight Activity (Flightaware)

Listeners: 0 out of 3008 total

ACC-RE (Fortaleza Sector): 125.150
ACC-RE (Fortaleza Sector): 126.350
ACC-RE (Fortaleza Sector): 135.250
Fortaleza Approach: 133.000
Fortaleza Tower: 129.000

SBGO Gnd/Twr/App
Goiania, Brazil

Feed Status: DOWN
Offline since: 2024-02-12 12:57:40 UTC

SBGO 121600Z 01010KT 9999 TS VCSH SCT026 SCT035 SCT040CB BKN090 26/21 Q1017

Anapolis Approach: 119.150
Anapolis Approach: 120.550
Anapolis Approach: 133.000
Anapolis Approach: 129.450
Emergency/Guard: 121.500
Goiania Ground: 121.700
Goiania Tower: 118.700
Goiania Tower: 121.050

SBWL Control (Archives)
Ilheus, Brazil

Feed Status: UP
Listen in your browser - HTML5 player(in browser, HTML5)
Click here to listen with your own player(launches your MP3 player)

SBIL 121600Z 16005KT 9999 SCT020 FEW025TCU 30/25 Q1013

SBIL Flight Activity (Flightaware)

Listeners: 1 out of 3008 total

Ilheus Control: 120.100

SBIZ Info (Archives)
Imperatriz, Brazil

Feed Status: UP
Listen in your browser - HTML5 player(in browser, HTML5)
Click here to listen with your own player(launches your MP3 player)

SBIZ 121600Z 18005KT 9999 SCT030 32/25 Q1010

SBIZ Flight Activity (Flightaware)

Listeners: 0 out of 3008 total

Imperatriz Info: 125.650

SBJP Tower (Archives)
Joao Pessoa, Brazil

Feed Status: UP
Listen in your browser - HTML5 player(in browser, HTML5)
Click here to listen with your own player(launches your MP3 player)

SBJP 121600Z 09012KT 9999 SCT020 SCT090 32/25 Q1011

SBJP Flight Activity (Flightaware)

Listeners: 0 out of 3008 total

Joao Pessoa Tower: 118.300

SBJP Twr/Control/Airlines (Archives)
Joao Pessoa, Brazil

Feed Status: UP
Listen in your browser - HTML5 player(in browser, HTML5)
Click here to listen with your own player(launches your MP3 player)

SBJP 121600Z 09012KT 9999 SCT020 SCT090 32/25 Q1011

SBJP Flight Activity (Flightaware)

Listeners: 0 out of 3008 total

AZUL: 130.900
GOL: 131.225
Joao Pessoa Tower: 118.300
Recife Control: 119.500
TAM: 130.500

SBJU Tower/Center (Archives)
Juazeiro do Norte, Brazil

Feed Status: UP
Listen in your browser - HTML5 player(in browser, HTML5)
Click here to listen with your own player(launches your MP3 player)

SBJU 121600Z 00000KT 9999 BKN020 32/26 Q1012

SBJU Flight Activity (Flightaware)

Listeners: 1 out of 3008 total

Pilot-to-Pilot: 123.450
Radio Juazeiro: 131.750
Recife Center: 135.250
Recife Center: 125.150

SBKP Tower #2 (Archives)
Campinas, Brazil

Feed Status: UP
Listen in your browser - HTML5 player(in browser, HTML5)
Click here to listen with your own player(launches your MP3 player)

SBKP 121600Z 09006KT 9999 SCT033 28/19 Q1019

SBKP Flight Activity (Flightaware)

Listeners: 2 out of 3008 total

Campinas Tower: 118.250

SBLO Twr/App/Center (Archives)
Londrina, Brazil

Feed Status: UP
Listen in your browser - HTML5 player(in browser, HTML5)
Click here to listen with your own player(launches your MP3 player)

SBLO 121600Z 07010KT 9999 FEW025 31/20 Q1017

SBLO Flight Activity (Flightaware)

Listeners: 1 out of 3008 total

Curitiba Center: 128.350
Curitiba Center: 135.100
Curitiba Center: 125.800
Curitiba Center: 126.950
Emergency/Guard: 121.500
Londrina Approach: 129.700
Londrina Tower: 118.400
UNICOM: 123.450

SBMG Twr/App (Archives)
Maringa, Brazil

Feed Status: UP
Listen in your browser - HTML5 player(in browser, HTML5)
Click here to listen with your own player(launches your MP3 player)

SBMG 121600Z 04008KT 9999 SCT040 30/19 Q1015

SBMG Flight Activity (Flightaware)

Listeners: 5 out of 3008 total

Londrina Approach: 129.700
Maringa Tower: 118.750
UNICOM: 123.450

SBMK RDO/Center
Montes Claros, Brazil

Feed Status: DOWN
Offline since: 2023-12-20 07:10:06 UTC

Brasilia Center (Sector 15): 127.300
Montes Claros RDO: 131.700

SBMO Tower (Archives)
Maceio, Brazil

Feed Status: UP
Listen in your browser - HTML5 player(in browser, HTML5)
Click here to listen with your own player(launches your MP3 player)

SBMO 121600Z 12010KT 9999 BKN030 31/26 Q1012

SBMO Flight Activity (Flightaware)

Listeners: 0 out of 3008 total


SBMQ Tower/App/Center (Archives)
Macapa, Brazil

Feed Status: UP
Listen in your browser - HTML5 player(in browser, HTML5)
Click here to listen with your own player(launches your MP3 player)

SBMQ 121600Z 07011KT 9999 SCT010 SCT020 OVC100 29/26 Q1011

SBMQ Flight Activity (Flightaware)

Listeners: 1 out of 3008 total

Amazonico Center: 123.950
Amazonico Center: 128.000
Macapa Approach: 119.000
Macapa Tower: 118.000

SBNF Tower
Navegantes, Brazil

Feed Status: DOWN
Offline since: 2023-05-01 21:52:23 UTC

SBNF 121600Z 11009KT 080V150 9999 FEW008 SCT012 BKN060 24/23 Q1019

Navegantes Tower: 118.200

SBPA Gnd/Twr/App/Center (Archives)
Porto Alegre, Brazil

Feed Status: UP
Listen in your browser - HTML5 player(in browser, HTML5)
Click here to listen with your own player(launches your MP3 player)

SBPA 121600Z 12011KT 8000 -DZ BKN013 OVC025 22/20 Q1020

SBPA Flight Activity (Flightaware)

Listeners: 5 out of 3008 total

BACO (Canoas) Ground: 121.700
BACO (Canoas) Tower: 118.500
BACO (Canoas) Tower (Mil): 122.800
Curitiba Center (Sector 1/South SBPA): 126.750
Curitiba Center (Sector 1/South SBPA): 127.400
Curitiba Center (Sector 2): 123.725
Curitiba Center (Sector 2): 135.900
Curitiba Center (Sector 3/West SBFL): 127.500
Curitiba Center (Sector 3/West SBFL): 126.100
Curitiba Center (Sector 4/South SBFL): 135.850
Curitiba Center (Sector 4/South SBFL): 128.450
Curitiba Center (Sector 5/East SBCT): 124.400
Curitiba Center (Sector 5/East SBCT): 125.400
Curitiba Center (Sector 6/East SBCT Atlantico): 128.400
Curitiba Center (Sector 6/East SBCT Atlantico): 127.050
Curitiba Center (Sector 9/North SBCT): 132.800
Curitiba Center (Sector 9/North SBCT): 126.500
Emergency/Guard: 121.500
Porto Alegre Approach Sector 1: 120.100
Porto Alegre Approach Sector 2: 120.550
Porto Alegre Approach Sector 3: 128.900
Porto Alegre Approach Sector 4: 119.000
Salgado Filho Ground: 121.900
Salgado Filho Tower: 118.100

SBPB Info (Archives)
Parnaiba, Brazil

Feed Status: UP
Listen in your browser - HTML5 player(in browser, HTML5)
Click here to listen with your own player(launches your MP3 player)

SBPB 121600Z 05010KT 9999 SCT020 32/26 Q1010

SBPB Flight Activity (Flightaware)

Listeners: 1 out of 3008 total

Parnaiba Info: 126.600

SBPL RDO/ACC (Archives)
Petrolina, Brazil

Feed Status: UP
Listen in your browser - HTML5 player(in browser, HTML5)
Click here to listen with your own player(launches your MP3 player)

SBPL 121600Z 16006KT 9999 BKN028 31/23 Q1013

SBPL Flight Activity (Flightaware)

Listeners: 0 out of 3008 total

ACC RE Sector 5: 127.500
ACC RE Sector 5: 128.450
ACC RE Sector 6: 125.400
ACC RE Sector 6: 134.900
Air to Air/UNICOM: 123.450
Emergency/Guard: 121.500
Misc: 123.400
Petrolina RDO: 125.700
Recife FIS: 123.625

SBRF App 129.60 (Archives)
Recife, Brazil

Feed Status: UP
Listen in your browser - HTML5 player(in browser, HTML5)
Click here to listen with your own player(launches your MP3 player)

SBRF 121600Z 13010KT 9999 SCT025 31/25 Q1010

SBRF Flight Activity (Flightaware)

Listeners: 1 out of 3008 total

Recife Approach: 129.600

SBRF Gol Ops (Archives)
Recife, Brazil

Feed Status: UP
Listen in your browser - HTML5 player(in browser, HTML5)
Click here to listen with your own player(launches your MP3 player)

SBRF 121600Z 13010KT 9999 SCT025 31/25 Q1010

SBRF Flight Activity (Flightaware)

Listeners: 0 out of 3008 total

Gol Ops: 131.225

SBRF Ground (Archives)
Recife, Brazil

Feed Status: UP
Listen in your browser - HTML5 player(in browser, HTML5)
Click here to listen with your own player(launches your MP3 player)

SBRF 121600Z 13010KT 9999 SCT025 31/25 Q1010

SBRF Flight Activity (Flightaware)

Listeners: 0 out of 3008 total

Recife Ground: 121.850

SBRF LATAM Ops (Archives)
Recife, Brazil

Feed Status: UP
Listen in your browser - HTML5 player(in browser, HTML5)
Click here to listen with your own player(launches your MP3 player)

SBRF 121600Z 13010KT 9999 SCT025 31/25 Q1010

SBRF Flight Activity (Flightaware)

Listeners: 0 out of 3008 total

LATAM Ops: 130.500

SBRF Recife ACC (Archives)
Recife, Brazil

Feed Status: UP
Listen in your browser - HTML5 player(in browser, HTML5)
Click here to listen with your own player(launches your MP3 player)

SBRF 121600Z 13010KT 9999 SCT025 31/25 Q1010

SBRF Flight Activity (Flightaware)

Listeners: 1 out of 3008 total

Recife Center: 128.700
Recife Center: 133.650
Recife Center: 134.800

SBRF Tower (Archives)
Recife, Brazil

Feed Status: UP
Listen in your browser - HTML5 player(in browser, HTML5)
Click here to listen with your own player(launches your MP3 player)

SBRF 121600Z 13010KT 9999 SCT025 31/25 Q1010

SBRF Flight Activity (Flightaware)

Listeners: 49 out of 3008 total

Recife Tower: 125.250
Recife Tower: 118.350
Recife Tower: 118.900

SBSG Tower (Archives)
Sao Goncalo do Amarante, Brazil

Feed Status: UP
Listen in your browser - HTML5 player(in browser, HTML5)
Click here to listen with your own player(launches your MP3 player)

SBSG 121600Z 08012KT 9999 VCSH BKN030 FEW033TCU 31/24 Q1010

SBSG Flight Activity (Flightaware)

Listeners: 0 out of 3008 total


SBSL Twr/App/FIR (Archives)
Sao Luis, Brazil

Feed Status: UP
Listen in your browser - HTML5 player(in browser, HTML5)
Click here to listen with your own player(launches your MP3 player)

SBSL 121600Z 01010KT 9999 SCT020 FEW025TCU 27/26 Q1010

SBSL Flight Activity (Flightaware)

Listeners: 2 out of 3008 total

Amazonica Center: 133.700
Sao Luis Approach: 119.100
Sao Luis Tower: 118.900

SBSN Twr/App/ACC (Archives)
Santarem, Brazil

Feed Status: UP
Listen in your browser - HTML5 player(in browser, HTML5)
Click here to listen with your own player(launches your MP3 player)

SBSN 121600Z 34006KT 9999 TS VCSH SCT018 FEW023CB 30/25 Q1011

SBSN Flight Activity (Flightaware)

Listeners: 0 out of 3008 total

Brasilia Center/ACC: 123.650
Brasilia Center/ACC: 125.050
Santarem Approach: 119.300
Santarem Tower: 118.100

SBSR AFIS/App/Center (Archives)
Sao Jose do Rio Preto, Brazil

Feed Status: UP
Listen in your browser - HTML5 player(in browser, HTML5)
Click here to listen with your own player(launches your MP3 player)

SBSR 121600Z 13005KT 9999 FEW023TCU SCT025 29/20 Q1016

SBSR Flight Activity (Flightaware)

Listeners: 1 out of 3008 total

Academia Approach (North Sector): 119.750
Academia Approach (North Sector): 120.400
Brasilia Center: 135.150
Rio Preto Radio AFIS: 130.850

SBTE Twr/App (Archives)
Teresina, Brazil

Feed Status: UP
Listen in your browser - HTML5 player(in browser, HTML5)
Click here to listen with your own player(launches your MP3 player)

SBTE 121600Z 14004KT 9999 BKN020 ///// Q1009

SBTE Flight Activity (Flightaware)

Listeners: 1 out of 3008 total

Teresina Approach: 119.600
Teresina Tower: 118.800

SBRE Recife ACC (Archives)
Paulo Afonso, Brazil

Feed Status: UP
Listen in your browser - HTML5 player(in browser, HTML5)
Click here to listen with your own player(launches your MP3 player)

SBRE Flight Activity (Flightaware)

Listeners: 0 out of 3008 total

Recife Center (ACC): 125.400
Recife Center (ACC): 125.450
Recife Center (ACC): 126.850
Recife Center (ACC): 133.650
Recife Center (ACC): 134.500
Recife Center (ACC): 134.900

SBUF AFIS/Center (Archives)
Paulo Afonso, Brazil

Feed Status: UP
Listen in your browser - HTML5 player(in browser, HTML5)
Click here to listen with your own player(launches your MP3 player)

SBUF 121600Z 05010KT 9999 SCT020 30/22 Q1012

SBUF Flight Activity (Flightaware)

Listeners: 1 out of 3008 total

Paulo Afonso Radio: 125.850
Recife Center: 133.650
Recife Center: 134.500
Recife Center: 125.450

SBQV AFIS
Vitoria da Conquista, Brazil

Feed Status: DOWN
Offline since: 2023-09-11 01:59:23 UTC

Conquista AFIS: 130.850
Despacho Azul: 131.875
Despacho Passaredo: 132.000

SBVT Tower/Approach (Archives)
Vitoria, Brazil

Feed Status: UP
Listen in your browser - HTML5 player(in browser, HTML5)
Click here to listen with your own player(launches your MP3 player)

SBVT 121600Z 17008KT 9999 BKN025 30/24 Q1015

SBVT Flight Activity (Flightaware)

Listeners: 0 out of 3008 total

SBVT Control Approach: 119.850
SBVT Tower: 118.100

SCEL Gnd/Twr/Radar (Archives)
Santiago, Chile

Feed Status: UP
Listen in your browser - HTML5 player(in browser, HTML5)
Click here to listen with your own player(launches your MP3 player)

SCEL 121600Z 18006KT 9999 SCT100 BKN150 15/08 Q1015 NOSIG

SCEL Flight Activity (Flightaware)

Listeners: 19 out of 3008 total

Santiago Authorizations: 121.700
Santiago Control (Lat 3323S North): 128.100
Santiago Control (Lat 3323S South): 126.300
Santiago Ground (Primary): 122.200
Santiago Ground (Secondary): 122.500
Santiago Radar: 125.400
Santiago Radar: 135.400
Santiago Radar (Arrival, Primary): 129.700
Santiago Radar (Arrival, Secondary): 119.700
Santiago Radar (Arrival, Secondary): 123.800
Santiago Radar (Departure, Primary): 121.100
Santiago Radar (Departure, Secondary): 123.800
Santiago Radar (Information, Primary): 122.400
Santiago Radar (Information, Secondary): 120.800
Santiago Radar (Information, Secondary): 123.800
Santiago Tower (Primary): 118.100
Santiago Tower (Secondary): 118.350
SCTB Tobalaba Tower: 118.700

SEGU App/Dep/Info (Archives)
Guayaquil, Ecuador

Feed Status: UP
Listen in your browser - HTML5 player(in browser, HTML5)
Click here to listen with your own player(launches your MP3 player)

SEGU 121600Z 20006KT 9999 FEW026 SCT100 33/20 Q1009 NOSIG RMK A2982

SEGU Flight Activity (Flightaware)

Listeners: 0 out of 3008 total

Guayaquil Approach: 120.700
Guayaquil Approach (Secondary): 119.300
Guayaquil Info: 126.900

SEGU Gnd/Twr (Archives)
Guayaquil, Ecuador

Feed Status: UP
Listen in your browser - HTML5 player(in browser, HTML5)
Click here to listen with your own player(launches your MP3 player)

SEGU 121600Z 20006KT 9999 FEW026 SCT100 33/20 Q1009 NOSIG RMK A2982

SEGU Flight Activity (Flightaware)

Listeners: 0 out of 3008 total

Guayaquil Ground: 121.900
Guayaquil Ground (Secondary): 121.700
Guayaquil Tower: 118.300
Guayaquil Tower (Secondary): 118.900

SEGU Gnd/Twr/App
Guayaquil, Ecuador

Feed Status: DOWN
Offline since: 2023-10-27 06:00:40 UTC

SEGU 121600Z 20006KT 9999 FEW026 SCT100 33/20 Q1009 NOSIG RMK A2982

Guayaquil Approach: 120.700
Guayaquil Ground: 121.900
Guayaquil Tower: 118.300

SEGU Guayaquil Center (Archives)
Guayaquil, Ecuador

Feed Status: UP
Listen in your browser - HTML5 player(in browser, HTML5)
Click here to listen with your own player(launches your MP3 player)

SEGU 121600Z 20006KT 9999 FEW026 SCT100 33/20 Q1009 NOSIG RMK A2982

SEGU Flight Activity (Flightaware)

Listeners: 0 out of 3008 total

Guayaquil Center: 127.950
Guayaquil Center: 128.300
Guayaquil Center (Secondary): 128.000
Guayaquil Center (Secondary): 123.900

SMZO Tower (Archives)
Paramaribo, Suriname

Feed Status: UP
Listen in your browser - HTML5 player(in browser, HTML5)
Click here to listen with your own player(launches your MP3 player)

SMZO 121600Z 05012KT 9999 BKN030 32/22 Q1013 NOSIG

SMZO Flight Activity (Flightaware)

Listeners: 0 out of 3008 total

Zorg en Hoop Tower: 120.100

SNRZ Area (Archives)
Oliveira, Brazil

Feed Status: UP
Listen in your browser - HTML5 player(in browser, HTML5)
Click here to listen with your own player(launches your MP3 player)

SNRZ Flight Activity (Flightaware)

Listeners: 1 out of 3008 total

Azul: 130.900
Brasilia ACC-BS (Air Control Center): 133.450
Brasilia ACC-BS (Air Control Center): 135.550
Brasilia ACC-BS (Air Control Center): 126.150
Brasilia ACC-BS (Air Control Center): 126.800
Brasilia ACC-BS (Air Control Center): 125.050
Brasilia ACC-BS (Air Control Center): 126.500
Brasilia ACC-BS (Air Control Center): 122.650
Brasilia ACC-BS (Air Control Center): 126.550
Brasilia ACC-BS (Air Control Center): 123.350
Brasilia ACC-BS (Air Control Center): 124.750
Brasilia ACC-BS (Air Control Center): 134.750
Brasilia ACC-BS (Air Control Center): 133.600
Brasilia ACC-BS (Air Control Center): 124.800
Brasilia ACC-BS (Air Control Center): 124.250
Brasilia ACC-BS (Air Control Center): 127.300
Brasilia ACC-BS (Air Control Center): 127.000
Brasilia ACC-BS (Air Control Center): 124.250
Brasilia ACC-BS (Air Control Center): 127.300
Brasilia ACC-BS (Air Control Center): 127.000
Brasilia ACC-BS (Air Control Center): 133.450
Brasilia ACC-BS (Air Control Center): 135.550
Brasilia ACC-BS (Air Control Center): 126.150
Brasilia ACC-BS (Air Control Center): 126.800
Brasilia ACC-BS (Air Control Center): 125.050
Brasilia ACC-BS (Air Control Center): 126.500
Brasilia ACC-BS (Air Control Center): 122.650
Brasilia ACC-BS (Air Control Center): 126.550
Brasilia ACC-BS (Air Control Center): 123.350
Brasilia ACC-BS (Air Control Center): 124.750
Brasilia ACC-BS (Air Control Center): 134.750
Brasilia ACC-BS (Air Control Center): 133.600
Brasilia ACC-BS (Air Control Center): 124.800
Curitiba ACC-CW: 126.500
Curitiba ACC-CW: 134.750
Curitiba ACC-CW: 124.000
Curitiba ACC-CW: 125.350
Emergency: 121.500
Emergency: 121.500
GOL Coordination: 131.225
TAM Coordination: 130.500
TAM Maintenance: 130.600
Trip Coordination: 131.375

SPJC Approach (Archives)
Lima, Peru

Feed Status: UP
Listen in your browser - HTML5 player(in browser, HTML5)
Click here to listen with your own player(launches your MP3 player)

SPJC 121600Z 19006KT 140V230 CAVOK 25/20 Q1012 NOSIG RMK BIRD HAZARD RWY 16 PP000

SPJC Flight Activity (Flightaware)

Listeners: 0 out of 3008 total

Lima Approach: 119.700

SPJC Ground (Archives)
Lima, Peru

Feed Status: UP
Listen in your browser - HTML5 player(in browser, HTML5)
Click here to listen with your own player(launches your MP3 player)

SPJC 121600Z 19006KT 140V230 CAVOK 25/20 Q1012 NOSIG RMK BIRD HAZARD RWY 16 PP000

SPJC Flight Activity (Flightaware)

Listeners: 0 out of 3008 total

Lima Ground: 121.900

SPJC Tower (Archives)
Lima, Peru

Feed Status: UP
Listen in your browser - HTML5 player(in browser, HTML5)
Click here to listen with your own player(launches your MP3 player)

SPJC 121600Z 19006KT 140V230 CAVOK 25/20 Q1012 NOSIG RMK BIRD HAZARD RWY 16 PP000

SPJC Flight Activity (Flightaware)

Listeners: 5 out of 3008 total

Lima Tower: 118.100

SPQU Ground/Tower (Archives)
Arequipa, Peru

Feed Status: UP
Listen in your browser - HTML5 player(in browser, HTML5)
Click here to listen with your own player(launches your MP3 player)

SPQU 121600Z VRB06KT CAVOK 21/08 Q1027 NOSIG RMK PP000

SPQU Flight Activity (Flightaware)

Listeners: 0 out of 3008 total

Arequipa Alternate: 118.200
Arequipa Ground: 121.900
Arequipa Tower: 118.700
Emergency/Guard: 121.500

SPQU Misc (Archives)
Arequipa, Peru

Feed Status: UP
Listen in your browser - HTML5 player(in browser, HTML5)
Click here to listen with your own player(launches your MP3 player)

SPQU 121600Z VRB06KT CAVOK 21/08 Q1027 NOSIG RMK PP000

SPQU Flight Activity (Flightaware)

Listeners: 0 out of 3008 total

Emergency/Guard: 121.500
Ilo Tower: 126.900
Iquique ACC: 128.700
Radar Sur-dos: 128.800
Tacna Tower: 118.400

SPST Tower (Archives)
Tarapoto, Peru

Feed Status: UP
Listen in your browser - HTML5 player(in browser, HTML5)
Click here to listen with your own player(launches your MP3 player)

SPST 121600Z 12003KT 070V180 9999 FEW015 32/22 Q1013 RMK PP000

SPST Flight Activity (Flightaware)

Listeners: 1 out of 3008 total

Tarapoto Tower: 118.400

SSBL Air to Air
Blumenau, Brazil

Feed Status: DOWN
Offline since: 2024-04-09 11:45:22 UTC

Air to Air: 123.450

SUAA Tower (Archives)
Montevideo, Uruguay

Feed Status: UP
Listen in your browser - HTML5 player(in browser, HTML5)
Click here to listen with your own player(launches your MP3 player)

SUAA 121600Z 10009KT 040V170 9999 FEW030 SCT083 BKN200 21/11 Q1023

SUAA Flight Activity (Flightaware)

Listeners: 1 out of 3008 total

Adami Tower: 118.400
Adami Tower (backup): 122.100
Emergency/Guard: 121.500

SUCM AFIS/SUCA/SADF Twr (Archives)
Carmelo, Uruguay

Feed Status: UP
Listen in your browser - HTML5 player(in browser, HTML5)
Click here to listen with your own player(launches your MP3 player)

METAR NOT AVAILABLE

SUCM Flight Activity (Flightaware)

Listeners: 0 out of 3008 total

Carmelo AFIS: 118.300
Carmelo AFIS (backup): 122.100
Colonia Tower (SUCA): 120.800
San Fernando Tower (SADF): 120.700

SUDU Twr/App/FIR
Durazno, Uruguay

Feed Status: DOWN
Offline since: 2023-11-24 01:36:39 UTC

SUDU 121600Z 09014KT 9999 BKN023 BKN200 21/14 Q1022

Durazno Twr/App: 120.400
Durazno Twr/App: 126.200
Montevideo Control - Centro (Central): 126.300

SUGA Twr/Info (Archives)
Pando, Uruguay

Feed Status: UP
Listen in your browser - HTML5 player(in browser, HTML5)
Click here to listen with your own player(launches your MP3 player)

SUGA Flight Activity (Flightaware)

Listeners: 0 out of 3008 total

SUGA Info: 126.200
SUGA Tower: 118.500

SULS Tower
Punta del Este, Uruguay

Feed Status: DOWN
Offline since: 2024-01-27 19:29:40 UTC

SULS 121600Z 12013KT 9999 SCT026 BKN200 21/11 Q1024

Air to Air: 123.450
SULS A/G: 122.100
SULS Tower: 118.300

SUMO Tower
Melo, Uruguay

Feed Status: DOWN
Offline since: 2023-05-06 13:19:23 UTC

SUMO 191500Z 05006KT 9999 FEW030 BKN200 33/16 Q1010

Melo Ramp: 122.100
Melo Tower: 118.600

Montevideo Control (Antena Este)
Montevideo, Uruguay

Feed Status: DOWN
Offline since: 2023-11-28 23:51:23 UTC

SUMU 121600Z 12015KT 9999 FEW026 SCT200 20/12 Q1024 NOSIG

Montevideo Control: 128.500
Montevideo Control: 126.300

SUMU App/Dep (Archives)
Montevideo, Uruguay

Feed Status: UP
Listen in your browser - HTML5 player(in browser, HTML5)
Click here to listen with your own player(launches your MP3 player)

SUMU 121600Z 12015KT 9999 FEW026 SCT200 20/12 Q1024 NOSIG

SUMU Flight Activity (Flightaware)

Listeners: 1 out of 3008 total

SUMU Approach: 119.200
SUMU Approach: 120.200
SUMU Control: 128.500

SUMU Twr/App (Archives)
Montevideo, Uruguay

Feed Status: UP
Listen in your browser - HTML5 player(in browser, HTML5)
Click here to listen with your own player(launches your MP3 player)

SUMU 121600Z 12015KT 9999 FEW026 SCT200 20/12 Q1024 NOSIG

SUMU Flight Activity (Flightaware)

Listeners: 2 out of 3008 total

SUMU Approach: 119.200
SUMU Tower: 118.100

SUMU Twr/Info (Archives)
Montevideo, Uruguay

Feed Status: UP
Listen in your browser - HTML5 player(in browser, HTML5)
Click here to listen with your own player(launches your MP3 player)

SUMU 121600Z 12015KT 9999 FEW026 SCT200 20/12 Q1024 NOSIG

SUMU Flight Activity (Flightaware)

Listeners: 0 out of 3008 total

SUMU Info: 121.800
SUMU Tower: 118.100

SUPE CTAF
Punta del Este, Uruguay

Feed Status: DOWN
Offline since: 2024-01-27 19:29:40 UTC

SULS 121600Z 12013KT 9999 SCT026 BKN200 21/11 Q1024

SUPE CTAF: 118.700

SUPU AFIS (Archives)
Paysandu, Uruguay

Feed Status: UP
Listen in your browser - HTML5 player(in browser, HTML5)
Click here to listen with your own player(launches your MP3 player)

SUPU 040900Z 10005KT 9999 FEW020TCU BKN070 FEW200 23/23 Q1010

SUPU Flight Activity (Flightaware)

Listeners: 0 out of 3008 total

Paysandu AFIS: 118.200
Paysandu AFIS: 118.700

SURV Tower/Ramp
Rivera, Uruguay

Feed Status: DOWN
Offline since: 2024-04-11 21:19:06 UTC

SURV 110000Z 16002KT CAVOK 19/11 Q1020

Rivera Flying Club Ops: 118.100
Rivera Ramp/Tower: 118.000
Rivera Ramp/Tower: 122.100

SUSO Tower/Ramp (Archives)
Salto, Uruguay

Feed Status: UP
Listen in your browser - HTML5 player(in browser, HTML5)
Click here to listen with your own player(launches your MP3 player)

SUSO 121600Z 12012KT 9999 BKN015 BKN070 22/16 Q1017

SUSO Flight Activity (Flightaware)

Listeners: 0 out of 3008 total


SVMI/SVZM FIR
Maiquetia, Venezuela

Feed Status: DOWN
Offline since: 2024-03-23 12:45:22 UTC

Approach: 120.100
Emergency/Guard: 121.500
Emergency/Guard: 243.000
Maiquetia ACC S135 Aux: 123.800
Maiquetia ACC S246 Aux: 128.100
Maiquetia ACC Sector S1: 128.500
Maiquetia ACC Sector S2: 125.200
Maiquetia ACC Sector S3: 126.600
Maiquetia ACC Sector S4: 126.000
Maiquetia ACC Sector S5: 128.700
Maiquetia ACC Sector S6: 127.950

SVPR Twr/App/FIR (Archives)
Ciudad Guayana, Venezuela

Feed Status: UP
Listen in your browser - HTML5 player(in browser, HTML5)
Click here to listen with your own player(launches your MP3 player)

SVPR Flight Activity (Flightaware)

Listeners: 0 out of 3008 total

Emergency/Guard: 121.500
FIR 6: 126.000
Guayana Approach (Primary): 119.500
Guayana Approach (Secondary): 120.300
Guayana Tower (Primary): 118.000
Guayana Tower (Secondary): 123.500
SMC: 121.900

TNCA Twr/App/Apron (Archives)
Oranjestad, Aruba

Feed Status: UP
Listen in your browser - HTML5 player(in browser, HTML5)
Click here to listen with your own player(launches your MP3 player)

TNCA 121600Z 09021KT 9999 FEW027 31/23 Q1015 NOSIG

TNCA Flight Activity (Flightaware)

Listeners: 2 out of 3008 total

Beatrix Ground (Apron): 121.600
Beatrix Tower: 118.000
Beatrix Twr/App: 120.900
Emergency/Guard: 121.500
Search/Rescue: 123.100

TNCB ATIS (Archives)
Kralendijk, Bonaire

Feed Status: UP
Listen in your browser - HTML5 player(in browser, HTML5)
Click here to listen with your own player(launches your MP3 player)

TNCB 121555Z 10016KT 060V150 9999 SCT024 SCT029 32/23 Q1015

TNCB Flight Activity (Flightaware)

Listeners: 0 out of 3008 total

Bonaire ATIS: 132.300

TNCB Tower (Archives)
Kralendijk, Bonaire

Feed Status: UP
Listen in your browser - HTML5 player(in browser, HTML5)
Click here to listen with your own player(launches your MP3 player)

TNCB 121555Z 10016KT 060V150 9999 SCT024 SCT029 32/23 Q1015

TNCB Flight Activity (Flightaware)

Listeners: 2 out of 3008 total

Bonaire Tower: 118.700

TNCC ATIS (Archives)
Willemstad, Curacao

Feed Status: UP
Listen in your browser - HTML5 player(in browser, HTML5)
Click here to listen with your own player(launches your MP3 player)

TNCC 121600Z 09013KT 9999 FEW023 32/23 Q1015 NOSIG=

TNCC Flight Activity (Flightaware)

Listeners: 0 out of 3008 total

Hato ATIS: 132.600

TNCC Control (Archives)
Willemstad, Curacao

Feed Status: UP
Listen in your browser - HTML5 player(in browser, HTML5)
Click here to listen with your own player(launches your MP3 player)

TNCC 121600Z 09013KT 9999 FEW023 32/23 Q1015 NOSIG=

TNCC Flight Activity (Flightaware)

Listeners: 2 out of 3008 total

Curacao Control: 124.100
Curacao Control: 127.100

TNCC Terminal (Archives)
Willemstad, Curacao

Feed Status: UP
Listen in your browser - HTML5 player(in browser, HTML5)
Click here to listen with your own player(launches your MP3 player)

TNCC 121600Z 09013KT 9999 FEW023 32/23 Q1015 NOSIG=

TNCC Flight Activity (Flightaware)

Listeners: 0 out of 3008 total

Curacao Terminal (1700-2300Z): 119.800

TNCC Tower (Archives)
Willemstad, Curacao

Feed Status: UP
Listen in your browser - HTML5 player(in browser, HTML5)
Click here to listen with your own player(launches your MP3 player)

TNCC 121600Z 09013KT 9999 FEW023 32/23 Q1015 NOSIG=

TNCC Flight Activity (Flightaware)

Listeners: 0 out of 3008 total

Hato Tower: 118.300

TTCP Gnd/Twr/App (Archives)
Scarborough, Trinidad and Tobago

Feed Status: UP
Listen in your browser - HTML5 player(in browser, HTML5)
Click here to listen with your own player(launches your MP3 player)

TTCP 121600Z 10015KT 9999 FEW023 32/23 Q1015 NOSIG

TTCP Flight Activity (Flightaware)

Listeners: 0 out of 3008 total

Piarco Approach: 119.000
Robinson Ground: 121.700
Robinson Tower: 118.400

TTPP Apron/Gnd/Twr (Archives)
Port of Spain, Trinidad and Tobago

Feed Status: UP
Listen in your browser - HTML5 player(in browser, HTML5)
Click here to listen with your own player(launches your MP3 player)

TTPP 121600Z 09013KT 9999 FEW022 32/23 Q1015 NOSIG

TTPP Flight Activity (Flightaware)

Listeners: 2 out of 3008 total

Piarco Apron: 121.750
Piarco Ground: 121.900
Piarco Tower: 118.100

TTPP Piarco App/Center (Archives)
Port of Spain, Trinidad and Tobago

Feed Status: UP
Listen in your browser - HTML5 player(in browser, HTML5)
Click here to listen with your own player(launches your MP3 player)

TTPP 121600Z 09013KT 9999 FEW022 32/23 Q1015 NOSIG

TTPP Flight Activity (Flightaware)

Listeners: 2 out of 3008 total

Piarco Approach: 119.550
Piarco Approach: 119.000
Piarco Approach (backup): 124.000
Piarco Center: 123.700
Piarco Center (Oceanic): 126.500
Piarco Center (South Sector): 125.400
Piarco Center Oceanic (Backup): 133.100